sensor_id;sensor_type;location;lat;lon;timestamp;pressure;altitude;pressure_sealevel;temperature;humidity
70009;BME280;59542;37.950;-122.338;2023-02-03T00:01:41;102103.31;;;14.64;47.29
70009;BME280;59542;37.950;-122.338;2023-02-03T00:04:07;102107.50;;;14.73;47.45
70009;BME280;59542;37.950;-122.338;2023-02-03T00:06:33;102111.06;;;14.80;46.98
70009;BME280;59542;37.950;-122.338;2023-02-03T00:09:00;102123.03;;;14.71;47.17
70009;BME280;59542;37.950;-122.338;2023-02-03T00:11:29;102122.44;;;14.75;46.87
70009;BME280;59542;37.950;-122.338;2023-02-03T00:13:55;102124.25;;;14.62;47.07
70009;BME280;59542;37.950;-122.338;2023-02-03T00:16:22;102137.72;;;14.55;47.05
70009;BME280;59542;37.950;-122.338;2023-02-03T00:18:48;102135.16;;;14.88;46.42
70009;BME280;59542;37.950;-122.338;2023-02-03T00:21:14;102144.22;;;14.74;45.98
70009;BME280;59542;37.950;-122.338;2023-02-03T00:23:41;102147.34;;;14.84;45.28
70009;BME280;59542;37.950;-122.338;2023-02-03T00:26:09;102149.47;;;14.89;45.05
70009;BME280;59542;37.950;-122.338;2023-02-03T00:28:35;102168.22;;;14.69;46.63
70009;BME280;59542;37.950;-122.338;2023-02-03T00:31:02;102163.66;;;14.63;46.86
70009;BME280;59542;37.950;-122.338;2023-02-03T00:33:28;102157.59;;;14.54;46.89
70009;BME280;59542;37.950;-122.338;2023-02-03T00:35:54;102158.00;;;14.51;46.82
70009;BME280;59542;37.950;-122.338;2023-02-03T00:38:21;102165.69;;;14.26;48.08
70009;BME280;59542;37.950;-122.338;2023-02-03T00:40:53;102166.88;;;14.10;48.64
70009;BME280;59542;37.950;-122.338;2023-02-03T00:43:20;102174.25;;;14.02;49.04
70009;BME280;59542;37.950;-122.338;2023-02-03T00:45:46;102174.53;;;13.85;49.12
70009;BME280;59542;37.950;-122.338;2023-02-03T00:48:13;102173.53;;;13.65;50.18
70009;BME280;59542;37.950;-122.338;2023-02-03T00:50:39;102174.97;;;13.61;50.30
70009;BME280;59542;37.950;-122.338;2023-02-03T00:53:05;102169.59;;;13.39;50.34
70009;BME280;59542;37.950;-122.338;2023-02-03T00:55:32;102164.13;;;13.54;50.06
70009;BME280;59542;37.950;-122.338;2023-02-03T00:57:58;102162.09;;;13.35;50.11
70009;BME280;59542;37.950;-122.338;2023-02-03T01:00:24;102161.25;;;13.34;50.39
70009;BME280;59542;37.950;-122.338;2023-02-03T01:02:50;102147.50;;;13.23;50.71
70009;BME280;59542;37.950;-122.338;2023-02-03T01:05:17;102145.91;;;13.28;50.73
70009;BME280;59542;37.950;-122.338;2023-02-03T01:07:43;102157.44;;;13.07;51.35
70009;BME280;59542;37.950;-122.338;2023-02-03T01:10:09;102165.22;;;13.38;50.62
70009;BME280;59542;37.950;-122.338;2023-02-03T01:12:36;102148.81;;;13.12;51.86
70009;BME280;59542;37.950;-122.338;2023-02-03T01:15:02;102140.00;;;13.39;50.95
70009;BME280;59542;37.950;-122.338;2023-02-03T01:17:29;102124.13;;;13.08;51.68
70009;BME280;59542;37.950;-122.338;2023-02-03T01:19:55;102120.44;;;13.09;51.84
70009;BME280;59542;37.950;-122.338;2023-02-03T01:22:21;102113.84;;;13.12;51.53
70009;BME280;59542;37.950;-122.338;2023-02-03T01:24:47;102114.41;;;12.71;52.62
70009;BME280;59542;37.950;-122.338;2023-02-03T01:27:14;102101.47;;;12.60;53.18
70009;BME280;59542;37.950;-122.338;2023-02-03T01:29:41;102085.44;;;12.30;53.73
70009;BME280;59542;37.950;-122.338;2023-02-03T01:32:07;102057.13;;;12.28;54.14
70009;BME280;59542;37.950;-122.338;2023-02-03T01:34:33;102052.91;;;12.40;52.63
70009;BME280;59542;37.950;-122.338;2023-02-03T01:36:59;102035.06;;;12.32;52.78
70009;BME280;59542;37.950;-122.338;2023-02-03T01:39:26;102019.88;;;12.39;52.66
70009;BME280;59542;37.950;-122.338;2023-02-03T01:41:54;102042.28;;;12.32;52.29
70009;BME280;59542;37.950;-122.338;2023-02-03T01:44:45;102057.72;;;12.45;51.18
70009;BME280;59542;37.950;-122.338;2023-02-03T01:47:26;102059.41;;;12.46;51.24
70009;BME280;59542;37.950;-122.338;2023-02-03T01:52:24;102064.81;;;12.67;49.89
70009;BME280;59542;37.950;-122.338;2023-02-03T01:54:53;102070.66;;;12.56;50.30
70009;BME280;59542;37.950;-122.338;2023-02-03T01:57:25;102065.06;;;12.72;50.43
70009;BME280;59542;37.950;-122.338;2023-02-03T01:59:53;102075.75;;;12.87;49.87
70009;BME280;59542;37.950;-122.338;2023-02-03T02:02:21;102071.69;;;12.55;51.26
70009;BME280;59542;37.950;-122.338;2023-02-03T02:07:41;102079.84;;;12.32;53.78
70009;BME280;59542;37.950;-122.338;2023-02-03T02:10:08;102083.00;;;12.50;53.78
70009;BME280;59542;37.950;-122.338;2023-02-03T02:12:35;102090.22;;;12.50;53.42
70009;BME280;59542;37.950;-122.338;2023-02-03T02:15:02;102092.06;;;12.85;52.67
70009;BME280;59542;37.950;-122.338;2023-02-03T02:18:02;102086.88;;;12.48;52.77
70009;BME280;59542;37.950;-122.338;2023-02-03T02:32:24;102068.28;;;11.72;54.83
70009;BME280;59542;37.950;-122.338;2023-02-03T02:35:14;102066.22;;;11.59;54.83
70009;BME280;59542;37.950;-122.338;2023-02-03T02:37:52;102064.75;;;11.57;54.98
70009;BME280;59542;37.950;-122.338;2023-02-03T02:43:25;102067.44;;;11.57;54.48
70009;BME280;59542;37.950;-122.338;2023-02-03T02:45:59;102066.22;;;11.45;54.72
70009;BME280;59542;37.950;-122.338;2023-02-03T02:51:00;102066.66;;;11.48;53.97
70009;BME280;59542;37.950;-122.338;2023-02-03T02:53:32;102063.97;;;11.33;54.48
70009;BME280;59542;37.950;-122.338;2023-02-03T02:56:03;102068.94;;;11.36;54.54
70009;BME280;59542;37.950;-122.338;2023-02-03T02:58:31;102055.94;;;11.33;54.37
70009;BME280;59542;37.950;-122.338;2023-02-03T03:00:59;102052.22;;;11.34;54.09
70009;BME280;59542;37.950;-122.338;2023-02-03T03:03:26;102050.13;;;11.45;54.01
70009;BME280;59542;37.950;-122.338;2023-02-03T03:05:58;102044.25;;;11.26;54.65
70009;BME280;59542;37.950;-122.338;2023-02-03T03:11:04;102048.31;;;11.22;54.49
70009;BME280;59542;37.950;-122.338;2023-02-03T03:13:39;102038.63;;;11.36;54.41
70009;BME280;59542;37.950;-122.338;2023-02-03T03:16:07;102047.50;;;11.36;54.46
70009;BME280;59542;37.950;-122.338;2023-02-03T03:18:40;102045.84;;;11.35;54.25
70009;BME280;59542;37.950;-122.338;2023-02-03T03:21:10;102047.50;;;11.22;54.14
70009;BME280;59542;37.950;-122.338;2023-02-03T03:23:42;102053.59;;;11.30;53.96
70009;BME280;59542;37.950;-122.338;2023-02-03T03:26:30;102056.28;;;11.30;53.37
70009;BME280;59542;37.950;-122.338;2023-02-03T03:30:05;102048.44;;;11.29;53.24
70009;BME280;59542;37.950;-122.338;2023-02-03T03:32:06;102056.16;;;11.24;53.65
70009;BME280;59542;37.950;-122.338;2023-02-03T03:34:33;102046.78;;;11.43;52.58
70009;BME280;59542;37.950;-122.338;2023-02-03T03:37:05;102042.28;;;11.58;51.80
70009;BME280;59542;37.950;-122.338;2023-02-03T03:39:41;102043.13;;;11.73;51.57
70009;BME280;59542;37.950;-122.338;2023-02-03T03:44:56;102054.34;;;11.92;51.39
70009;BME280;59542;37.950;-122.338;2023-02-03T03:47:27;102065.66;;;12.02;50.92
70009;BME280;59542;37.950;-122.338;2023-02-03T03:49:57;102063.03;;;12.08;50.83
70009;BME280;59542;37.950;-122.338;2023-02-03T03:52:29;102063.69;;;12.25;50.26
70009;BME280;59542;37.950;-122.338;2023-02-03T03:54:58;102056.19;;;12.21;50.68
70009;BME280;59542;37.950;-122.338;2023-02-03T04:00:17;102060.06;;;12.33;51.26
70009;BME280;59542;37.950;-122.338;2023-02-03T04:02:49;102064.75;;;12.46;51.69
70009;BME280;59542;37.950;-122.338;2023-02-03T04:05:16;102073.31;;;12.34;52.08
70009;BME280;59542;37.950;-122.338;2023-02-03T04:07:45;102067.84;;;12.28;52.43
70009;BME280;59542;37.950;-122.338;2023-02-03T04:12:57;102066.78;;;11.55;55.70
70009;BME280;59542;37.950;-122.338;2023-02-03T04:15:24;102067.28;;;11.73;54.93
70009;BME280;59542;37.950;-122.338;2023-02-03T04:17:50;102059.88;;;12.20;54.09
70009;BME280;59542;37.950;-122.338;2023-02-03T04:20:17;102063.38;;;11.61;54.22
70009;BME280;59542;37.950;-122.338;2023-02-03T04:22:45;102068.91;;;11.59;52.75
70009;BME280;59542;37.950;-122.338;2023-02-03T04:25:11;102059.16;;;11.81;52.05
70009;BME280;59542;37.950;-122.338;2023-02-03T04:27:38;102052.56;;;11.69;52.00
70009;BME280;59542;37.950;-122.338;2023-02-03T04:30:05;102054.88;;;11.72;52.09
70009;BME280;59542;37.950;-122.338;2023-02-03T04:32:31;102055.53;;;11.74;51.93
70009;BME280;59542;37.950;-122.338;2023-02-03T04:35:00;102052.28;;;11.79;50.89
70009;BME280;59542;37.950;-122.338;2023-02-03T04:37:27;102057.38;;;11.74;50.90
70009;BME280;59542;37.950;-122.338;2023-02-03T04:39:54;102051.38;;;11.72;50.94
70009;BME280;59542;37.950;-122.338;2023-02-03T04:42:21;102060.88;;;11.74;50.99
70009;BME280;59542;37.950;-122.338;2023-02-03T04:44:48;102058.41;;;11.73;50.66
70009;BME280;59542;37.950;-122.338;2023-02-03T04:47:15;102055.31;;;11.76;50.57
70009;BME280;59542;37.950;-122.338;2023-02-03T04:49:41;102051.81;;;11.75;50.56
70009;BME280;59542;37.950;-122.338;2023-02-03T04:52:08;102045.38;;;11.84;50.22
70009;BME280;59542;37.950;-122.338;2023-02-03T04:54:34;102043.72;;;11.83;49.08
70009;BME280;59542;37.950;-122.338;2023-02-03T04:57:01;102031.56;;;11.73;49.52
70009;BME280;59542;37.950;-122.338;2023-02-03T04:59:27;102023.25;;;11.68;49.74
70009;BME280;59542;37.950;-122.338;2023-02-03T05:01:54;102027.72;;;11.37;48.93
70009;BME280;59542;37.950;-122.338;2023-02-03T05:04:20;102033.91;;;11.23;49.27
70009;BME280;59542;37.950;-122.338;2023-02-03T05:06:46;102033.34;;;10.90;49.16
70009;BME280;59542;37.950;-122.338;2023-02-03T05:09:13;102023.31;;;11.07;49.10
70009;BME280;59542;37.950;-122.338;2023-02-03T05:11:40;102031.06;;;11.02;48.94
70009;BME280;59542;37.950;-122.338;2023-02-03T05:14:06;102035.91;;;11.21;49.09
70009;BME280;59542;37.950;-122.338;2023-02-03T05:16:33;102040.94;;;11.24;48.24
70009;BME280;59542;37.950;-122.338;2023-02-03T05:18:59;102043.09;;;11.06;48.55
70009;BME280;59542;37.950;-122.338;2023-02-03T05:21:26;102037.94;;;11.19;48.71
70009;BME280;59542;37.950;-122.338;2023-02-03T05:23:52;102029.31;;;11.47;47.78
70009;BME280;59542;37.950;-122.338;2023-02-03T05:26:18;102039.59;;;11.58;47.17
70009;BME280;59542;37.950;-122.338;2023-02-03T05:28:44;102033.41;;;11.20;46.68
70009;BME280;59542;37.950;-122.338;2023-02-03T05:31:11;102028.44;;;11.31;47.25
70009;BME280;59542;37.950;-122.338;2023-02-03T05:33:37;102022.00;;;11.41;47.35
70009;BME280;59542;37.950;-122.338;2023-02-03T05:36:04;102022.34;;;11.37;47.40
70009;BME280;59542;37.950;-122.338;2023-02-03T05:38:30;102011.81;;;11.36;47.88
70009;BME280;59542;37.950;-122.338;2023-02-03T05:40:56;102007.09;;;11.38;47.49
70009;BME280;59542;37.950;-122.338;2023-02-03T05:43:41;102001.03;;;11.44;47.02
70009;BME280;59542;37.950;-122.338;2023-02-03T05:46:07;101998.44;;;11.51;46.47
70009;BME280;59542;37.950;-122.338;2023-02-03T05:48:34;101990.59;;;11.49;46.05
70009;BME280;59542;37.950;-122.338;2023-02-03T05:51:00;101990.31;;;11.44;45.49
70009;BME280;59542;37.950;-122.338;2023-02-03T05:53:27;102002.88;;;11.44;45.37
70009;BME280;59542;37.950;-122.338;2023-02-03T05:55:53;101997.78;;;11.49;45.13
70009;BME280;59542;37.950;-122.338;2023-02-03T05:58:20;102003.16;;;11.49;45.12
70009;BME280;59542;37.950;-122.338;2023-02-03T06:00:46;102009.28;;;11.72;43.53
70009;BME280;59542;37.950;-122.338;2023-02-03T06:03:12;102010.84;;;11.67;44.55
70009;BME280;59542;37.950;-122.338;2023-02-03T06:05:38;102012.72;;;11.96;46.55
70009;BME280;59542;37.950;-122.338;2023-02-03T06:08:06;102020.53;;;11.53;47.48
70009;BME280;59542;37.950;-122.338;2023-02-03T06:10:33;102018.59;;;11.47;47.76
70009;BME280;59542;37.950;-122.338;2023-02-03T06:13:07;102023.38;;;11.36;48.14
70009;BME280;59542;37.950;-122.338;2023-02-03T06:15:34;102020.25;;;11.33;48.50
70009;BME280;59542;37.950;-122.338;2023-02-03T06:18:00;102018.66;;;11.24;49.50
70009;BME280;59542;37.950;-122.338;2023-02-03T06:20:26;102027.53;;;11.24;49.86
70009;BME280;59542;37.950;-122.338;2023-02-03T06:22:52;102031.88;;;11.25;49.92
70009;BME280;59542;37.950;-122.338;2023-02-03T06:25:19;102030.28;;;11.16;50.53
70009;BME280;59542;37.950;-122.338;2023-02-03T06:27:45;102025.88;;;11.23;50.49
70009;BME280;59542;37.950;-122.338;2023-02-03T06:30:11;102035.75;;;11.23;50.79
70009;BME280;59542;37.950;-122.338;2023-02-03T06:32:38;102037.75;;;11.21;50.96
70009;BME280;59542;37.950;-122.338;2023-02-03T06:35:04;102039.81;;;11.19;50.45
70009;BME280;59542;37.950;-122.338;2023-02-03T06:37:30;102042.66;;;11.17;49.83
70009;BME280;59542;37.950;-122.338;2023-02-03T06:39:57;102034.63;;;11.17;49.41
70009;BME280;59542;37.950;-122.338;2023-02-03T06:42:23;102025.47;;;11.26;48.30
70009;BME280;59542;37.950;-122.338;2023-02-03T06:44:49;102035.41;;;11.03;47.76
70009;BME280;59542;37.950;-122.338;2023-02-03T06:47:15;102031.66;;;10.89;47.50
70009;BME280;59542;37.950;-122.338;2023-02-03T06:49:42;102040.13;;;11.01;48.10
70009;BME280;59542;37.950;-122.338;2023-02-03T06:52:08;102041.13;;;11.00;47.72
70009;BME280;59542;37.950;-122.338;2023-02-03T06:54:34;102042.50;;;10.96;47.64
70009;BME280;59542;37.950;-122.338;2023-02-03T06:57:00;102047.47;;;10.99;47.18
70009;BME280;59542;37.950;-122.338;2023-02-03T06:59:27;102048.34;;;10.99;47.39
70009;BME280;59542;37.950;-122.338;2023-02-03T07:01:53;102053.84;;;10.98;47.58
70009;BME280;59542;37.950;-122.338;2023-02-03T07:04:19;102038.28;;;11.01;47.67
70009;BME280;59542;37.950;-122.338;2023-02-03T07:06:46;102034.16;;;10.91;48.62
70009;BME280;59542;37.950;-122.338;2023-02-03T07:09:12;102030.75;;;10.97;48.05
70009;BME280;59542;37.950;-122.338;2023-02-03T07:11:38;102031.78;;;10.96;48.33
70009;BME280;59542;37.950;-122.338;2023-02-03T07:14:05;102027.44;;;10.95;48.04
70009;BME280;59542;37.950;-122.338;2023-02-03T07:16:31;102028.72;;;10.99;47.85
70009;BME280;59542;37.950;-122.338;2023-02-03T07:18:59;102022.13;;;10.87;47.67
70009;BME280;59542;37.950;-122.338;2023-02-03T07:21:25;102031.78;;;10.96;47.47
70009;BME280;59542;37.950;-122.338;2023-02-03T07:23:51;102037.47;;;10.93;47.64
70009;BME280;59542;37.950;-122.338;2023-02-03T07:26:18;102041.59;;;11.03;47.08
70009;BME280;59542;37.950;-122.338;2023-02-03T07:28:44;102050.75;;;11.09;47.41
70009;BME280;59542;37.950;-122.338;2023-02-03T07:31:10;102052.78;;;11.07;48.38
70009;BME280;59542;37.950;-122.338;2023-02-03T07:33:37;102060.09;;;11.13;50.72
70009;BME280;59542;37.950;-122.338;2023-02-03T07:36:04;102061.38;;;11.02;51.95
70009;BME280;59542;37.950;-122.338;2023-02-03T07:38:31;102065.28;;;10.92;52.08
70009;BME280;59542;37.950;-122.338;2023-02-03T07:40:57;102059.47;;;11.11;52.73
70009;BME280;59542;37.950;-122.338;2023-02-03T07:43:23;102063.31;;;10.86;53.23
70009;BME280;59542;37.950;-122.338;2023-02-03T07:45:50;102064.53;;;10.83;53.45
70009;BME280;59542;37.950;-122.338;2023-02-03T07:48:16;102062.06;;;10.73;53.56
70009;BME280;59542;37.950;-122.338;2023-02-03T07:50:42;102063.44;;;10.69;53.61
70009;BME280;59542;37.950;-122.338;2023-02-03T07:53:10;102063.25;;;10.71;53.65
70009;BME280;59542;37.950;-122.338;2023-02-03T07:55:39;102068.06;;;10.75;54.50
70009;BME280;59542;37.950;-122.338;2023-02-03T07:58:06;102068.16;;;10.59;55.18
70009;BME280;59542;37.950;-122.338;2023-02-03T08:00:33;102060.91;;;10.45;55.75
70009;BME280;59542;37.950;-122.338;2023-02-03T08:02:59;102049.22;;;10.69;55.13
70009;BME280;59542;37.950;-122.338;2023-02-03T08:05:26;102050.25;;;10.20;56.68
70009;BME280;59542;37.950;-122.338;2023-02-03T08:07:52;102046.09;;;10.26;56.52
70009;BME280;59542;37.950;-122.338;2023-02-03T08:10:18;102049.25;;;10.29;56.59
70009;BME280;59542;37.950;-122.338;2023-02-03T08:12:45;102037.34;;;10.32;56.34
70009;BME280;59542;37.950;-122.338;2023-02-03T08:15:12;102035.97;;;10.05;57.19
70009;BME280;59542;37.950;-122.338;2023-02-03T08:17:39;102046.31;;;10.08;56.59
70009;BME280;59542;37.950;-122.338;2023-02-03T08:20:07;102032.28;;;10.06;57.27
70009;BME280;59542;37.950;-122.338;2023-02-03T08:22:34;102028.09;;;10.03;57.52
70009;BME280;59542;37.950;-122.338;2023-02-03T08:25:00;102019.81;;;10.21;56.98
70009;BME280;59542;37.950;-122.338;2023-02-03T08:27:26;102024.47;;;10.36;56.69
70009;BME280;59542;37.950;-122.338;2023-02-03T08:29:52;102018.59;;;10.40;56.56
70009;BME280;59542;37.950;-122.338;2023-02-03T08:32:20;102026.34;;;10.27;56.52
70009;BME280;59542;37.950;-122.338;2023-02-03T08:34:51;102017.84;;;10.15;56.90
70009;BME280;59542;37.950;-122.338;2023-02-03T08:37:19;102001.44;;;10.26;56.53
70009;BME280;59542;37.950;-122.338;2023-02-03T08:39:46;102014.78;;;10.35;55.98
70009;BME280;59542;37.950;-122.338;2023-02-03T08:42:13;102005.94;;;10.34;55.56
70009;BME280;59542;37.950;-122.338;2023-02-03T08:44:39;102015.63;;;10.35;55.59
70009;BME280;59542;37.950;-122.338;2023-02-03T08:47:05;102003.63;;;10.54;54.77
70009;BME280;59542;37.950;-122.338;2023-02-03T08:49:32;101991.72;;;10.56;54.53
70009;BME280;59542;37.950;-122.338;2023-02-03T08:52:00;101992.06;;;10.53;55.08
70009;BME280;59542;37.950;-122.338;2023-02-03T08:54:27;101985.69;;;10.54;55.63
70009;BME280;59542;37.950;-122.338;2023-02-03T08:56:53;101990.84;;;10.64;55.72
70009;BME280;59542;37.950;-122.338;2023-02-03T08:59:19;101992.19;;;10.60;56.16
70009;BME280;59542;37.950;-122.338;2023-02-03T09:01:45;101984.47;;;10.65;56.16
70009;BME280;59542;37.950;-122.338;2023-02-03T09:04:14;101982.78;;;10.64;56.16
70009;BME280;59542;37.950;-122.338;2023-02-03T09:06:45;101981.06;;;10.71;56.19
70009;BME280;59542;37.950;-122.338;2023-02-03T09:09:14;101981.75;;;10.73;56.26
70009;BME280;59542;37.950;-122.338;2023-02-03T09:11:41;102002.78;;;10.76;56.08
70009;BME280;59542;37.950;-122.338;2023-02-03T09:14:08;102000.28;;;10.75;56.23
70009;BME280;59542;37.950;-122.338;2023-02-03T09:16:34;101987.53;;;10.77;56.27
70009;BME280;59542;37.950;-122.338;2023-02-03T09:19:01;101978.03;;;10.74;56.06
70009;BME280;59542;37.950;-122.338;2023-02-03T09:21:27;101976.00;;;10.76;56.53
70009;BME280;59542;37.950;-122.338;2023-02-03T09:23:53;101983.94;;;10.70;56.35
70009;BME280;59542;37.950;-122.338;2023-02-03T09:26:19;101964.75;;;10.81;55.87
70009;BME280;59542;37.950;-122.338;2023-02-03T09:28:46;101960.22;;;10.67;55.83
70009;BME280;59542;37.950;-122.338;2023-02-03T09:31:14;101970.44;;;10.63;55.15
70009;BME280;59542;37.950;-122.338;2023-02-03T09:33:42;101971.56;;;10.69;54.73
70009;BME280;59542;37.950;-122.338;2023-02-03T09:36:09;101967.22;;;10.68;54.42
70009;BME280;59542;37.950;-122.338;2023-02-03T09:38:36;101973.22;;;10.70;54.40
70009;BME280;59542;37.950;-122.338;2023-02-03T09:44:11;101976.72;;;10.70;53.86
70009;BME280;59542;37.950;-122.338;2023-02-03T09:46:46;101969.22;;;10.66;53.84
70009;BME280;59542;37.950;-122.338;2023-02-03T09:49:26;101961.69;;;10.69;53.59
70009;BME280;59542;37.950;-122.338;2023-02-03T09:52:23;101954.47;;;10.70;53.67
70009;BME280;59542;37.950;-122.338;2023-02-03T09:55:24;101957.94;;;10.78;53.06
70009;BME280;59542;37.950;-122.338;2023-02-03T09:58:17;101967.00;;;10.77;51.77
70009;BME280;59542;37.950;-122.338;2023-02-03T10:01:07;101949.31;;;10.68;50.72
70009;BME280;59542;37.950;-122.338;2023-02-03T10:04:32;101954.72;;;10.60;44.67
70009;BME280;59542;37.950;-122.338;2023-02-03T10:07:01;101952.56;;;10.78;43.46
70009;BME280;59542;37.950;-122.338;2023-02-03T10:17:42;101935.94;;;11.35;39.04
70009;BME280;59542;37.950;-122.338;2023-02-03T10:20:43;101926.69;;;11.38;38.66
70009;BME280;59542;37.950;-122.338;2023-02-03T10:23:34;101926.81;;;11.45;38.67
70009;BME280;59542;37.950;-122.338;2023-02-03T10:26:05;101920.31;;;11.54;37.45
70009;BME280;59542;37.950;-122.338;2023-02-03T10:28:40;101909.84;;;11.74;36.63
70009;BME280;59542;37.950;-122.338;2023-02-03T10:31:20;101908.81;;;11.75;36.48
70009;BME280;59542;37.950;-122.338;2023-02-03T10:34:08;101905.75;;;11.93;36.41
70009;BME280;59542;37.950;-122.338;2023-02-03T10:37:01;101903.16;;;11.99;36.39
70009;BME280;59542;37.950;-122.338;2023-02-03T10:39:44;101902.25;;;11.92;35.38
70009;BME280;59542;37.950;-122.338;2023-02-03T10:42:11;101899.34;;;12.08;35.10
70009;BME280;59542;37.950;-122.338;2023-02-03T10:44:42;101892.84;;;12.18;35.03
70009;BME280;59542;37.950;-122.338;2023-02-03T10:47:32;101893.53;;;12.26;34.27
70009;BME280;59542;37.950;-122.338;2023-02-03T10:50:06;101900.19;;;12.30;34.64
70009;BME280;59542;37.950;-122.338;2023-02-03T10:52:34;101894.88;;;12.37;33.97
70009;BME280;59542;37.950;-122.338;2023-02-03T10:55:27;101903.00;;;12.43;34.27
70009;BME280;59542;37.950;-122.338;2023-02-03T10:57:55;101898.91;;;12.48;34.29
70009;BME280;59542;37.950;-122.338;2023-02-03T11:00:26;101904.22;;;12.62;33.68
70009;BME280;59542;37.950;-122.338;2023-02-03T11:02:55;101897.19;;;12.61;34.35
70009;BME280;59542;37.950;-122.338;2023-02-03T11:05:22;101893.22;;;12.57;33.60
70009;BME280;59542;37.950;-122.338;2023-02-03T11:07:50;101902.97;;;12.65;33.75
70009;BME280;59542;37.950;-122.338;2023-02-03T11:10:36;101900.91;;;12.60;33.71
70009;BME280;59542;37.950;-122.338;2023-02-03T11:13:23;101909.78;;;12.61;34.11
70009;BME280;59542;37.950;-122.338;2023-02-03T11:18:43;101911.94;;;12.72;33.83
70009;BME280;59542;37.950;-122.338;2023-02-03T11:21:25;101929.44;;;12.89;34.30
70009;BME280;59542;37.950;-122.338;2023-02-03T11:26:24;101959.94;;;13.03;39.80
70009;BME280;59542;37.950;-122.338;2023-02-03T11:28:55;101975.13;;;12.89;44.49
70009;BME280;59542;37.950;-122.338;2023-02-03T11:31:24;101978.22;;;12.93;46.06
70009;BME280;59542;37.950;-122.338;2023-02-03T11:34:03;101982.53;;;12.87;49.77
70009;BME280;59542;37.950;-122.338;2023-02-03T11:36:33;101978.34;;;12.78;51.95
70009;BME280;59542;37.950;-122.338;2023-02-03T11:39:27;101976.00;;;12.54;53.69
70009;BME280;59542;37.950;-122.338;2023-02-03T11:41:54;101976.78;;;12.48;55.59
70009;BME280;59542;37.950;-122.338;2023-02-03T11:44:26;101962.00;;;12.37;57.44
70009;BME280;59542;37.950;-122.338;2023-02-03T11:46:56;101957.59;;;12.29;57.99
70009;BME280;59542;37.950;-122.338;2023-02-03T11:53:04;101959.44;;;12.29;59.48
70009;BME280;59542;37.950;-122.338;2023-02-03T11:58:34;101959.59;;;12.06;61.87
70009;BME280;59542;37.950;-122.338;2023-02-03T12:01:39;101969.78;;;11.96;61.79
70009;BME280;59542;37.950;-122.338;2023-02-03T12:10:36;101961.84;;;11.58;66.86
70009;BME280;59542;37.950;-122.338;2023-02-03T12:15:52;101950.47;;;11.56;67.61
70009;BME280;59542;37.950;-122.338;2023-02-03T12:29:39;101973.56;;;10.90;73.28
70009;BME280;59542;37.950;-122.338;2023-02-03T12:37:27;101984.44;;;10.88;73.83
70009;BME280;59542;37.950;-122.338;2023-02-03T12:40:04;101990.13;;;10.08;78.32
70009;BME280;59542;37.950;-122.338;2023-02-03T12:42:49;101999.44;;;10.28;77.92
70009;BME280;59542;37.950;-122.338;2023-02-03T12:45:31;102003.16;;;10.50;76.19
70009;BME280;59542;37.950;-122.338;2023-02-03T12:48:24;102010.03;;;10.45;77.14
70009;BME280;59542;37.950;-122.338;2023-02-03T12:50:59;102019.34;;;10.57;76.50
70009;BME280;59542;37.950;-122.338;2023-02-03T12:53:36;102026.03;;;10.53;76.48
70009;BME280;59542;37.950;-122.338;2023-02-03T12:56:09;102038.50;;;10.92;75.24
70009;BME280;59542;37.950;-122.338;2023-02-03T13:01:27;102030.03;;;10.26;78.61
70009;BME280;59542;37.950;-122.338;2023-02-03T13:04:00;102040.69;;;10.65;77.19
70009;BME280;59542;37.950;-122.338;2023-02-03T13:09:31;102063.84;;;10.81;76.65
70009;BME280;59542;37.950;-122.338;2023-02-03T13:12:32;102072.56;;;10.52;77.91
70009;BME280;59542;37.950;-122.338;2023-02-03T13:20:32;102111.13;;;9.22;86.28
70009;BME280;59542;37.950;-122.338;2023-02-03T13:23:06;102111.72;;;8.91;88.20
70009;BME280;59542;37.950;-122.338;2023-02-03T13:25:43;102121.25;;;9.10;89.10
70009;BME280;59542;37.950;-122.338;2023-02-03T13:28:39;102122.47;;;9.40;86.78
70009;BME280;59542;37.950;-122.338;2023-02-03T13:31:13;102123.81;;;9.28;87.72
70009;BME280;59542;37.950;-122.338;2023-02-03T13:44:48;102121.34;;;8.68;90.15
70009;BME280;59542;37.950;-122.338;2023-02-03T13:47:22;102118.09;;;8.40;93.79
70009;BME280;59542;37.950;-122.338;2023-02-03T13:50:03;102119.81;;;8.57;93.92
70009;BME280;59542;37.950;-122.338;2023-02-03T13:52:42;102123.91;;;8.86;92.35
70009;BME280;59542;37.950;-122.338;2023-02-03T13:58:01;102112.88;;;8.72;92.82
70009;BME280;59542;37.950;-122.338;2023-02-03T14:05:52;102105.56;;;8.91;93.31
70009;BME280;59542;37.950;-122.338;2023-02-03T14:16:38;102125.16;;;8.65;95.20
70009;BME280;59542;37.950;-122.338;2023-02-03T14:19:08;102123.19;;;8.76;94.98
70009;BME280;59542;37.950;-122.338;2023-02-03T14:21:59;102120.88;;;8.81;94.47
70009;BME280;59542;37.950;-122.338;2023-02-03T14:24:32;102114.13;;;8.60;95.57
70009;BME280;59542;37.950;-122.338;2023-02-03T14:27:01;102109.16;;;8.65;95.78
70009;BME280;59542;37.950;-122.338;2023-02-03T14:29:33;102117.38;;;8.72;95.85
70009;BME280;59542;37.950;-122.338;2023-02-03T14:32:05;102116.41;;;8.97;92.22
70009;BME280;59542;37.950;-122.338;2023-02-03T14:34:44;102105.06;;;9.04;89.67
70009;BME280;59542;37.950;-122.338;2023-02-03T14:39:47;102087.38;;;8.94;87.01
70009;BME280;59542;37.950;-122.338;2023-02-03T14:43:22;102098.41;;;9.16;86.71